createdAt,value
2018-04-01T00:01:00.111Z,1.90
2018-04-01T00:03:27.258Z,2.00
2018-04-01T00:05:54.445Z,2.00
2018-04-01T00:08:21.596Z,2.00
2018-04-01T00:10:48.857Z,2.00
2018-04-01T00:13:16.490Z,2.00
2018-04-01T00:15:43.777Z,2.10
2018-04-01T00:18:10.963Z,2.00
2018-04-01T00:20:38.109Z,2.10
2018-04-01T00:23:06.167Z,2.10
2018-04-01T00:25:34.085Z,2.00
2018-04-01T00:28:01.274Z,2.00
2018-04-01T00:30:28.526Z,2.00
2018-04-01T00:32:55.782Z,1.90
2018-04-01T00:35:22.962Z,1.80
2018-04-01T00:37:50.982Z,1.90
2018-04-01T00:40:18.338Z,1.90
2018-04-01T00:42:45.612Z,2.00
2018-04-01T00:45:12.800Z,1.90
2018-04-01T00:47:39.954Z,1.90
2018-04-01T00:50:07.154Z,1.90
2018-04-01T00:52:34.322Z,1.90
2018-04-01T00:55:01.657Z,1.90
2018-04-01T00:57:28.837Z,1.90
2018-04-01T00:59:56.196Z,1.90
2018-04-01T01:02:24.136Z,1.80
2018-04-01T01:04:51.299Z,1.80
2018-04-01T01:07:18.558Z,1.80
2018-04-01T01:09:45.705Z,1.80
2018-04-01T01:12:13.673Z,1.60
2018-04-01T01:14:40.821Z,1.60
2018-04-01T01:17:07.975Z,1.80
2018-04-01T01:19:35.243Z,1.80
2018-04-01T01:22:02.481Z,1.80
2018-04-01T01:24:30.399Z,1.80
2018-04-01T01:26:57.567Z,1.70
2018-04-01T01:29:24.716Z,1.70
2018-04-01T01:31:51.890Z,1.80
2018-04-01T01:34:19.039Z,1.70
2018-04-01T01:36:46.889Z,1.60
2018-04-01T01:39:14.061Z,1.70
2018-04-01T01:41:41.313Z,1.70
2018-04-01T01:44:08.482Z,1.70
2018-04-01T01:46:35.690Z,1.70
2018-04-01T01:49:02.891Z,1.70
2018-04-01T01:51:30.147Z,1.70
2018-04-01T01:53:57.393Z,1.70
2018-04-01T01:56:24.641Z,1.70
2018-04-01T01:58:51.794Z,1.80
2018-04-01T02:01:18.932Z,1.70
2018-04-01T02:03:46.187Z,1.80
2018-04-01T02:06:13.329Z,1.80
2018-04-01T02:08:40.606Z,1.70
2018-04-01T02:11:07.842Z,1.60
2018-04-01T02:13:35.023Z,1.70
2018-04-01T02:16:02.946Z,1.70
2018-04-01T02:18:30.233Z,1.70
2018-04-01T02:20:57.410Z,1.70
2018-04-01T02:23:25.441Z,1.80
2018-04-01T02:25:52.581Z,1.80
2018-04-01T02:28:19.713Z,1.70
2018-04-01T02:30:46.920Z,1.70
2018-04-01T02:33:14.268Z,1.60
2018-04-01T02:35:41.504Z,1.60
2018-04-01T02:38:08.775Z,1.70
2018-04-01T02:40:36.028Z,1.70
2018-04-01T02:43:03.271Z,1.70
2018-04-01T02:45:30.467Z,1.70
2018-04-01T02:47:58.597Z,1.70
2018-04-01T02:50:25.746Z,1.60
2018-04-01T02:52:52.898Z,1.60
2018-04-01T02:55:20.075Z,1.70
2018-04-01T02:57:47.299Z,1.60
2018-04-01T03:00:14.449Z,1.60
2018-04-01T03:02:41.592Z,1.70
2018-04-01T03:05:08.774Z,1.70
2018-04-01T03:07:36.017Z,1.70
2018-04-01T03:10:03.260Z,1.70
2018-04-01T03:12:30.461Z,1.70
2018-04-01T03:14:58.395Z,1.70
2018-04-01T03:17:25.634Z,1.60
2018-04-01T03:19:52.988Z,1.70
2018-04-01T03:22:20.161Z,1.80
2018-04-01T03:24:47.345Z,1.70
2018-04-01T03:27:15.362Z,1.50
2018-04-01T03:29:42.551Z,1.50
2018-04-01T03:32:09.698Z,1.50
2018-04-01T03:34:37.022Z,1.60
2018-04-01T03:37:04.376Z,1.60
2018-04-01T03:39:31.730Z,1.50
2018-04-01T03:41:58.899Z,1.60
2018-04-01T03:44:26.167Z,1.60
2018-04-01T03:46:53.391Z,1.70
2018-04-01T03:49:20.539Z,1.60
2018-04-01T03:51:47.678Z,1.60
2018-04-01T03:54:14.870Z,1.70
2018-04-01T03:56:42.122Z,1.70
2018-04-01T03:59:09.269Z,1.70
2018-04-01T04:01:36.420Z,1.70
2018-04-01T04:04:03.566Z,1.70
2018-04-01T04:06:30.771Z,1.60
2018-04-01T04:08:57.940Z,1.60
2018-04-01T04:11:25.208Z,1.60
2018-04-01T04:13:52.353Z,1.60
2018-04-01T04:16:19.622Z,1.70
2018-04-01T04:18:46.976Z,1.60
2018-04-01T04:21:14.742Z,1.70
2018-04-01T04:23:42.694Z,1.60
2018-04-01T04:26:09.879Z,1.60
2018-04-01T04:28:37.118Z,1.70
2018-04-01T04:31:04.276Z,1.70
2018-04-01T04:33:31.552Z,1.70
2018-04-01T04:35:58.790Z,1.70
2018-04-01T05:00:26.715Z,1.60
2018-04-01T05:02:53.967Z,1.60
2018-04-01T05:05:21.199Z,1.60
2018-04-01T05:07:48.375Z,1.70
2018-04-01T05:10:15.621Z,1.60
2018-04-01T05:12:42.761Z,1.50
2018-04-01T05:15:09.939Z,1.50
2018-04-01T05:17:37.081Z,1.70
2018-04-01T05:20:04.284Z,1.70
2018-04-01T05:22:31.567Z,1.70
2018-04-01T05:24:58.817Z,1.70
2018-04-01T05:27:25.965Z,1.70
2018-04-01T05:29:53.150Z,1.80
2018-04-01T05:32:20.389Z,1.80
2018-04-01T05:34:47.641Z,1.70
2018-04-01T05:37:14.838Z,1.70
2018-04-01T05:39:42.043Z,1.70
2018-04-01T05:42:09.214Z,1.70
2018-04-01T05:44:36.437Z,1.80
2018-04-01T05:47:03.589Z,1.80
2018-04-01T05:49:30.942Z,1.90
2018-04-01T05:51:58.152Z,2.00
2018-04-01T05:54:25.334Z,1.90
2018-04-01T05:56:52.601Z,1.90
2018-04-01T05:59:19.957Z,2.00
2018-04-01T06:01:47.122Z,2.00
2018-04-01T06:04:14.379Z,2.00
2018-04-01T06:06:41.524Z,2.00
2018-04-01T06:09:08.682Z,1.90
2018-04-01T06:11:35.935Z,1.90
2018-04-01T06:14:03.195Z,1.90
2018-04-01T06:16:30.443Z,2.00
2018-04-01T06:18:57.616Z,2.00
2018-04-01T06:21:24.850Z,2.10
2018-04-01T06:23:52.009Z,2.10
2018-04-01T06:26:19.147Z,2.20
2018-04-01T06:28:46.385Z,2.30
2018-04-01T06:31:13.656Z,2.20
2018-04-01T06:33:40.900Z,2.20
2018-04-01T06:36:08.049Z,2.10
2018-04-01T06:38:35.305Z,2.10
2018-04-01T06:41:02.520Z,2.30
2018-04-01T06:43:29.721Z,2.20
2018-04-01T06:45:57.505Z,2.40
2018-04-01T06:48:25.456Z,2.40
2018-04-01T06:50:53.174Z,2.40
2018-04-01T06:53:20.761Z,2.50
2018-04-01T06:55:47.954Z,2.60
2018-04-01T06:58:16.282Z,2.60
2018-04-01T07:00:43.841Z,2.60
2018-04-01T07:03:11.540Z,2.70
2018-04-01T07:05:40.744Z,2.80
2018-04-01T07:08:08.500Z,2.80
2018-04-01T07:10:40.904Z,2.80
2018-04-01T07:13:09.207Z,3.10
2018-04-01T07:15:36.851Z,3.10
2018-04-01T07:18:04.771Z,2.80
2018-04-01T07:20:32.532Z,2.80
2018-04-01T07:22:59.910Z,3.00
2018-04-01T07:25:29.082Z,3.00
2018-04-01T07:27:56.579Z,3.00
2018-04-01T07:30:24.917Z,3.10
2018-04-01T07:32:52.322Z,3.10
2018-04-01T07:35:20.755Z,3.00
2018-04-01T07:37:48.376Z,3.00
2018-04-01T07:40:15.970Z,3.10
2018-04-01T07:42:43.848Z,3.20
2018-04-01T07:45:11.753Z,3.10
2018-04-01T07:47:39.189Z,3.10
2018-04-01T07:50:06.618Z,2.90
2018-04-01T07:52:34.138Z,3.10
2018-04-01T07:55:02.734Z,3.10
2018-04-01T07:57:31.054Z,3.10
2018-04-01T07:59:59.961Z,3.10
2018-04-01T08:02:27.701Z,3.30
2018-04-01T08:04:56.194Z,3.20
2018-04-01T08:07:24.774Z,3.10
2018-04-01T08:09:53.421Z,3.10
2018-04-01T08:12:21.287Z,3.10
2018-04-01T08:14:49.384Z,3.40
2018-04-01T08:17:16.658Z,3.40
2018-04-01T08:19:44.528Z,3.50
2018-04-01T08:22:13.176Z,3.40
2018-04-01T08:24:40.469Z,3.50
2018-04-01T08:27:09.251Z,3.60
2018-04-01T08:29:37.917Z,3.60
2018-04-01T08:32:05.378Z,3.60
2018-04-01T08:34:34.614Z,3.60
2018-04-01T08:37:03.299Z,3.60
2018-04-01T08:39:32.018Z,3.70
2018-04-01T08:41:59.546Z,3.90
2018-04-01T08:44:28.258Z,4.00
2018-04-01T08:46:56.193Z,4.00
2018-04-01T08:49:23.373Z,4.10
2018-04-01T08:51:51.110Z,3.90
2018-04-01T08:54:20.488Z,3.90
2018-04-01T08:56:48.712Z,3.80
2018-04-01T08:59:17.749Z,4.00
2018-04-01T09:01:45.064Z,4.00
2018-04-01T09:04:13.846Z,3.90
2018-04-01T09:06:42.404Z,3.90
2018-04-01T09:09:12.263Z,3.90
2018-04-01T09:11:41.230Z,3.80
2018-04-01T09:14:08.502Z,3.90
2018-04-01T09:16:35.774Z,4.00
2018-04-01T09:19:03.517Z,3.80
2018-04-01T09:21:30.920Z,3.70
2018-04-01T09:23:58.206Z,3.80
2018-04-01T09:26:26.231Z,3.80
2018-04-01T09:28:53.595Z,3.80
2018-04-01T09:31:20.822Z,3.70
2018-04-01T09:33:49.327Z,4.00
2018-04-01T09:36:17.598Z,4.00
2018-04-01T09:38:45.320Z,4.00
2018-04-01T09:41:12.568Z,4.10
2018-04-01T09:43:39.784Z,4.00
2018-04-01T09:46:16.605Z,4.00
2018-04-01T09:48:43.849Z,4.10
2018-04-01T09:51:11.033Z,3.90
2018-04-01T09:53:38.200Z,4.00
2018-04-01T09:56:08.018Z,4.00
2018-04-01T09:58:36.040Z,4.00
2018-04-01T10:01:03.980Z,4.00
2018-04-01T10:03:31.720Z,3.90
2018-04-01T10:05:59.466Z,4.10
2018-04-01T10:08:27.134Z,4.00
2018-04-01T10:10:54.977Z,4.10
2018-04-01T10:13:22.635Z,4.30
2018-04-01T10:15:50.408Z,4.20
2018-04-01T10:18:18.118Z,4.10
2018-04-01T10:20:45.787Z,4.10
2018-04-01T10:23:13.470Z,4.40
2018-04-01T10:25:41.096Z,4.40
2018-04-01T10:30:42.694Z,4.40
2018-04-01T10:33:10.410Z,4.50
2018-04-01T10:35:38.076Z,4.40
2018-04-01T10:38:05.925Z,4.50
2018-04-01T10:40:33.592Z,4.60
2018-04-01T10:43:01.278Z,4.70
2018-04-01T10:45:29.034Z,4.80
2018-04-01T10:47:56.693Z,4.80
2018-04-01T10:50:24.371Z,5.10
2018-04-01T10:52:52.019Z,4.90
2018-04-01T10:55:19.189Z,4.80
2018-04-01T10:57:46.336Z,4.60
2018-04-01T11:00:13.580Z,4.70
2018-04-01T11:02:40.822Z,4.60
2018-04-01T11:05:08.027Z,4.80
2018-04-01T11:07:35.166Z,4.90
2018-04-01T11:10:03.090Z,4.70
2018-04-01T11:12:30.243Z,4.70
2018-04-01T11:14:57.499Z,4.70
2018-04-01T11:17:24.847Z,4.90
2018-04-01T11:19:52.000Z,5.20
2018-04-01T11:22:19.215Z,5.30
2018-04-01T11:24:46.373Z,5.30
2018-04-01T11:27:13.512Z,5.20
2018-04-01T11:29:40.697Z,5.00
2018-04-01T11:32:07.844Z,4.90
2018-04-01T11:34:35.022Z,5.10
2018-04-01T11:37:02.171Z,5.20
2018-04-01T11:39:29.513Z,5.60
2018-04-01T11:41:56.869Z,5.70
2018-04-01T11:44:24.005Z,5.90
2018-04-01T11:46:51.157Z,6.10
2018-04-01T11:49:18.911Z,6.50
2018-04-01T11:51:49.550Z,7.00
2018-04-01T11:54:21.218Z,7.50
2018-04-01T11:56:49.400Z,7.40
2018-04-01T11:59:19.433Z,7.50
2018-04-01T12:01:49.231Z,7.40
2018-04-01T12:04:18.367Z,7.50
2018-04-01T12:06:45.715Z,7.50
2018-04-01T12:09:13.662Z,6.90
2018-04-01T12:11:41.520Z,7.00
2018-04-01T12:14:08.777Z,7.20
2018-04-01T12:16:36.533Z,6.80
2018-04-01T12:19:03.710Z,6.80
2018-04-01T12:21:30.895Z,6.70
2018-04-01T12:24:00.193Z,6.60
2018-04-01T12:26:28.130Z,6.60
2018-04-01T12:28:55.477Z,6.60
2018-04-01T12:31:23.548Z,6.60
2018-04-01T12:33:50.920Z,6.60
2018-04-01T12:36:18.138Z,6.70
2018-04-01T12:38:45.279Z,6.90
2018-04-01T12:41:12.424Z,6.60
2018-04-01T12:43:39.625Z,6.60
2018-04-01T12:46:06.900Z,6.50
2018-04-01T12:48:34.320Z,6.80
2018-04-01T12:51:01.778Z,6.90
2018-04-01T12:53:29.239Z,7.00
2018-04-01T12:55:57.515Z,6.40
2018-04-01T12:58:24.871Z,6.40
2018-04-01T13:00:52.144Z,6.30
2018-04-01T13:03:19.416Z,6.40
2018-04-01T13:05:46.843Z,6.30
2018-04-01T13:08:14.298Z,6.40
2018-04-01T13:10:41.461Z,6.50
2018-04-01T13:13:08.662Z,6.60
2018-04-01T13:15:35.854Z,6.90
2018-04-01T13:18:03.755Z,6.90
2018-04-01T13:20:31.381Z,6.70
2018-04-01T13:22:58.724Z,6.70
2018-04-01T13:25:25.995Z,6.70
2018-04-01T13:27:53.450Z,6.70
2018-04-01T13:30:20.626Z,6.80
2018-04-01T13:32:47.775Z,6.50
2018-04-01T13:35:15.063Z,6.50
2018-04-01T13:37:42.258Z,7.10
2018-04-01T13:40:09.610Z,7.20
2018-04-01T13:42:37.225Z,7.10
2018-04-01T13:45:05.575Z,7.50
2018-04-01T13:47:33.775Z,7.50
2018-04-01T13:50:03.241Z,7.70
2018-04-01T13:52:30.397Z,7.70
2018-04-01T13:54:57.576Z,7.40
2018-04-01T13:57:25.028Z,7.20
2018-04-01T13:59:52.893Z,7.40
2018-04-01T14:02:21.341Z,7.90
2018-04-01T14:04:49.006Z,7.90
2018-04-01T14:07:16.178Z,7.50
2018-04-01T14:09:43.379Z,7.00
2018-04-01T14:12:11.071Z,7.30
2018-04-01T14:14:38.742Z,7.40
2018-04-01T14:17:07.845Z,7.50
2018-04-01T14:19:35.711Z,7.70
2018-04-01T14:22:03.791Z,8.10
2018-04-01T14:24:31.438Z,8.60
2018-04-01T14:26:58.896Z,8.90
2018-04-01T14:29:26.776Z,8.90
2018-04-01T14:31:54.729Z,8.70
2018-04-01T14:34:22.694Z,8.70
2018-04-01T14:36:50.268Z,8.60
2018-04-01T14:39:18.530Z,8.70
2018-04-01T14:41:47.316Z,8.40
2018-04-01T14:44:21.893Z,8.40
2018-04-01T14:46:51.154Z,8.10
2018-04-01T14:49:32.706Z,8.10
2018-04-01T14:54:56.934Z,8.40
2018-04-01T15:00:23.927Z,8.10
2018-04-01T15:02:51.584Z,8.10
2018-04-01T15:05:22.253Z,8.30
2018-04-01T15:07:58.428Z,7.70
2018-04-01T15:10:28.137Z,7.50
2018-04-01T15:12:56.552Z,7.40
2018-04-01T15:15:27.381Z,7.30
2018-04-01T15:17:58.333Z,7.70
2018-04-01T15:20:32.806Z,8.20
2018-04-01T15:23:02.076Z,8.00
2018-04-01T15:25:29.838Z,8.00
2018-04-01T15:27:57.731Z,7.80
2018-04-01T15:30:24.976Z,7.60
2018-04-01T15:32:52.289Z,7.30
2018-04-01T15:35:19.982Z,7.20
2018-04-01T15:37:47.748Z,7.10
2018-04-01T15:40:15.305Z,7.10
2018-04-01T15:42:44.290Z,7.00
2018-04-01T15:45:11.859Z,6.70
2018-04-01T15:47:39.138Z,6.90
2018-04-01T15:50:06.878Z,6.90
2018-04-01T15:52:34.087Z,6.90
2018-04-01T15:55:02.054Z,6.70
2018-04-01T15:57:29.997Z,6.80
2018-04-01T15:59:57.251Z,6.80
2018-04-01T16:02:25.219Z,6.70
2018-04-01T16:04:52.364Z,6.70
2018-04-01T16:07:19.550Z,6.70
2018-04-01T16:09:47.455Z,6.80
2018-04-01T16:12:14.628Z,6.80
2018-04-01T16:14:41.878Z,6.90
2018-04-01T16:17:09.034Z,6.90
2018-04-01T16:19:36.219Z,6.90
2018-04-01T16:22:03.455Z,7.00
2018-04-01T16:24:30.603Z,6.90
2018-04-01T16:26:57.775Z,6.80
2018-04-01T16:29:25.009Z,7.00
2018-04-01T16:31:52.251Z,7.00
2018-04-01T16:34:19.503Z,7.00
2018-04-01T16:36:46.687Z,6.80
2018-04-01T16:39:13.923Z,6.70
2018-04-01T16:41:41.075Z,6.70
2018-04-01T16:44:08.253Z,6.60
2018-04-01T16:46:36.295Z,6.60
2018-04-01T16:49:03.435Z,6.60
2018-04-01T16:51:31.539Z,6.60
2018-04-01T16:53:59.677Z,6.50
2018-04-01T16:56:26.932Z,6.50
2018-04-01T16:58:54.117Z,6.40
2018-04-01T17:01:21.303Z,6.40
2018-04-01T17:03:48.487Z,6.30
2018-04-01T17:06:15.744Z,6.20
2018-04-01T17:08:42.946Z,6.30
2018-04-01T17:11:10.857Z,6.20
2018-04-01T17:13:37.990Z,6.20
2018-04-01T17:16:05.159Z,6.10
2018-04-01T17:18:32.332Z,6.00
2018-04-01T17:20:59.568Z,6.00
2018-04-01T17:23:26.733Z,6.00
2018-04-01T17:25:53.907Z,6.00
2018-04-01T17:28:21.053Z,5.90
2018-04-01T17:30:48.231Z,5.80
2018-04-01T17:33:15.404Z,5.80
2018-04-01T17:35:42.680Z,5.80
2018-04-01T17:38:11.495Z,5.70
2018-04-01T17:40:38.826Z,5.60
2018-04-01T17:43:05.979Z,5.50
2018-04-01T17:45:33.250Z,5.50
2018-04-01T17:48:00.484Z,5.50
2018-04-01T17:50:30.320Z,5.40
2018-04-01T17:52:57.463Z,5.40
2018-04-01T17:55:24.601Z,5.30
2018-04-01T17:57:51.858Z,5.30
2018-04-01T18:00:19.110Z,5.20
2018-04-01T18:02:46.277Z,5.00
2018-04-01T18:05:13.422Z,5.00
2018-04-01T18:07:40.570Z,4.90
2018-04-01T18:10:07.914Z,4.80
2018-04-01T18:12:35.171Z,4.80
2018-04-01T18:15:02.344Z,4.80
2018-04-01T18:17:31.468Z,4.60
2018-04-01T18:19:59.696Z,4.60
2018-04-01T18:22:26.962Z,4.60
2018-04-01T18:24:54.118Z,4.50
2018-04-01T18:27:21.377Z,4.40
2018-04-01T18:29:48.513Z,4.50
2018-04-01T18:32:16.573Z,4.40
2018-04-01T18:34:43.787Z,4.40
2018-04-01T18:37:11.799Z,4.40
2018-04-01T18:39:39.054Z,4.40
2018-04-01T18:42:06.398Z,4.40
2018-04-01T18:44:33.727Z,4.40
2018-04-01T18:47:01.611Z,4.40
2018-04-01T18:49:28.939Z,4.40
2018-04-01T18:51:57.238Z,4.30
2018-04-01T18:54:24.623Z,4.30
2018-04-01T18:56:52.107Z,4.30
2018-04-01T18:59:19.880Z,4.20
2018-04-01T19:01:47.874Z,4.20
2018-04-01T19:04:15.538Z,4.10
2018-04-01T19:06:43.915Z,4.00
2018-04-01T19:09:11.466Z,4.00
2018-04-01T19:11:39.558Z,3.90
2018-04-01T19:14:07.162Z,3.90
2018-04-01T19:16:34.956Z,3.80
2018-04-01T19:19:02.702Z,3.80
2018-04-01T19:21:30.549Z,3.90
2018-04-01T19:23:59.174Z,3.80
2018-04-01T19:26:27.349Z,3.70
2018-04-01T19:28:55.044Z,3.70
2018-04-01T19:31:23.742Z,3.60
2018-04-01T19:33:52.169Z,3.50
2018-04-01T19:36:20.239Z,3.50
2018-04-01T19:38:48.513Z,3.50
2018-04-01T19:41:17.213Z,3.40
2018-04-01T19:43:45.459Z,3.30
2018-04-01T19:46:14.041Z,3.20
2018-04-01T19:48:41.986Z,3.20
2018-04-01T19:51:12.505Z,3.10
2018-04-01T19:53:41.920Z,3.10
2018-04-01T19:56:13.298Z,3.00
2018-04-01T19:58:48.967Z,3.00
2018-04-01T20:01:17.333Z,2.90
2018-04-01T20:03:53.894Z,2.90
2018-04-01T20:06:22.416Z,2.90
2018-04-01T20:08:50.631Z,2.80
2018-04-01T20:11:19.854Z,2.80
2018-04-01T20:13:49.144Z,2.80
2018-04-01T20:16:17.228Z,2.80
2018-04-01T20:18:44.972Z,2.70
2018-04-01T20:21:12.667Z,2.70
2018-04-01T20:23:40.432Z,2.60
2018-04-01T20:26:08.197Z,2.70
2018-04-01T20:28:35.882Z,2.70
2018-04-01T20:31:04.340Z,2.80
2018-04-01T20:33:32.027Z,2.70
2018-04-01T20:35:59.714Z,2.70
2018-04-01T20:38:27.520Z,2.60
2018-04-01T20:40:55.241Z,2.60
2018-04-01T20:43:23.770Z,2.50
2018-04-01T20:45:51.514Z,2.50
2018-04-01T20:48:19.214Z,2.40
2018-04-01T20:50:46.889Z,2.40
2018-04-01T20:53:16.922Z,2.30
2018-04-01T20:55:47.474Z,2.30
2018-04-01T20:58:18.616Z,2.30
2018-04-01T21:00:48.909Z,2.30
2018-04-01T21:03:19.746Z,2.30
2018-04-01T21:05:50.904Z,2.20
2018-04-01T21:08:21.769Z,2.20
2018-04-01T21:10:52.280Z,2.20
2018-04-01T21:13:20.090Z,2.20
2018-04-01T21:15:47.770Z,2.20
2018-04-01T21:18:15.523Z,2.10
2018-04-01T21:20:43.244Z,2.10
2018-04-01T21:23:10.894Z,2.00
2018-04-01T21:25:38.586Z,1.90
2018-04-01T21:28:07.014Z,1.70
2018-04-01T21:30:34.689Z,1.70
2018-04-01T21:33:02.465Z,1.70
2018-04-01T21:35:30.225Z,1.70
2018-04-01T21:37:57.980Z,1.70
2018-04-01T21:40:26.696Z,1.70
2018-04-01T21:42:55.171Z,1.70
2018-04-01T21:45:22.813Z,1.60
2018-04-01T21:47:50.504Z,1.60
2018-04-01T21:50:18.663Z,1.50
2018-04-01T21:52:46.512Z,1.50
2018-04-01T21:55:14.281Z,1.50
2018-04-01T21:57:42.043Z,1.50
2018-04-01T22:00:09.729Z,1.50
2018-04-01T22:02:37.600Z,1.50
2018-04-01T22:05:05.956Z,1.50
2018-04-01T22:07:34.538Z,1.50
2018-04-01T22:10:02.322Z,1.50
2018-04-01T22:12:30.368Z,1.40
2018-04-01T22:14:58.145Z,1.50
2018-04-01T22:17:25.786Z,1.50
2018-04-01T22:19:53.441Z,1.50
2018-04-01T22:22:21.163Z,1.50
2018-04-01T22:24:49.589Z,1.60
2018-04-01T22:27:17.300Z,1.60
2018-04-01T22:29:45.778Z,1.60
2018-04-01T22:32:15.686Z,1.60
2018-04-01T22:34:43.459Z,1.60
2018-04-01T22:37:14.561Z,1.70
2018-04-01T22:39:42.271Z,1.70
2018-04-01T22:42:10.012Z,1.70
2018-04-01T22:44:37.779Z,1.70
2018-04-01T22:47:05.430Z,1.60
2018-04-01T22:49:33.120Z,1.60
2018-04-01T22:52:00.903Z,1.60
2018-04-01T22:54:28.636Z,1.50
2018-04-01T22:56:56.408Z,1.40
2018-04-01T22:59:24.190Z,1.40
2018-04-01T23:01:51.855Z,1.40
2018-04-01T23:04:19.593Z,1.40
2018-04-01T23:06:47.384Z,1.30
2018-04-01T23:09:15.025Z,1.40
2018-04-01T23:11:42.723Z,1.60
2018-04-01T23:14:14.494Z,1.70
2018-04-01T23:16:42.410Z,1.70
2018-04-01T23:19:12.150Z,1.80
2018-04-01T23:21:39.948Z,1.90
2018-04-01T23:24:08.421Z,1.90
2018-04-01T23:26:36.913Z,1.90
2018-04-01T23:29:06.063Z,1.90
2018-04-01T23:31:35.510Z,2.00
2018-04-01T23:34:05.485Z,2.00
2018-04-01T23:36:34.293Z,2.00
2018-04-01T23:39:02.086Z,2.00
2018-04-01T23:41:30.572Z,1.90
2018-04-01T23:43:58.391Z,1.90
2018-04-01T23:46:26.986Z,1.90
2018-04-01T23:48:56.368Z,1.70
2018-04-01T23:51:25.829Z,1.70
2018-04-01T23:53:54.362Z,1.40
2018-04-01T23:56:22.129Z,1.40
2018-04-01T23:58:50.884Z,1.40
